Main page
METAR-TAF:

METAR-TAF

Airports :

Girona, Spain

Girona–Costa Brava Airport

latitude: 41-54N, longitude: 002-46E, elevation: 143 m

Current weather observation

The report was made 15 minutes ago, at 03:30 UTC
Wind 2 kt from the North
Temperature 12°C
Humidity 88%
Pressure 1021 hPa
Visibility 10 km or more
Few clouds at a height of 3200 ft

METAR: LEGE 200330Z 36002KT 9999 FEW032 12/10 Q1021

Time: 05:45 (03:45 UTC)

Forecast

The report was made 4 hours and 45 minutes ago, at 23:00 UTC
Forecast valid from 20 at 00 UTC to 20 at 24 UTC
Wind 4 kt from variable directions
Visibility 10 km or more
Few clouds at a height of 2000 ft
Becoming
from 20 at 12 UTC to 20 at 14 UTC
Wind 10 kt from the South
Becoming
from 20 at 18 UTC to 20 at 21 UTC
Wind 3 kt from variable directions

TAF: LEGE 192300Z 2000/2024 VRB04KT 9999 FEW020 TX24/2013Z TN11/2006Z BECMG 2012/2014 18010KT BECMG 2018/2021 VRB03KT

Weather observations and forecasts of more than 4000 airports (METAR and TAF reports).

The available stations are represented by yellow and red dots on the map.

Hover mouse over dot to see the name of the station.

Then click to see weather observations and forecasts.

To change the map : click on the green buttons with a black cross to zoom in, on the green button with a dash to zoom out, or on the green arrows for adjacent maps.


METAR-TAF: